NORTHERN NASSAU  -  Areal Flood Advisory Areal Flood Advisory     Flash Flood Watch Flash Flood Watch     Rip Current Statement Rip Current Statement        NORTHERN QUEENS  -  Areal Flood Advisory Areal Flood Advisory     Flash Flood Watch Flash Flood Watch     Rip Current Statement Rip Current Statement        SOUTHERN NASSAU  -  Areal Flood Advisory Areal Flood Advisory     Flash Flood Watch Flash Flood Watch     Rip Current Statement Rip Current Statement        SOUTHERN QUEENS  -  Areal Flood Advisory Areal Flood Advisory     Flash Flood Watch Flash Flood Watch     Rip Current Statement Rip Current Statement        NORTHEAST SUFFOLK  -  Rip Current Statement Rip Current Statement        NORTHWEST SUFFOLK  -  Rip Current Statement Rip Current Statement        SOUTHEAST SUFFOLK  -  Rip Current Statement Rip Current Statement        SOUTHWEST SUFFOLK  -  Rip Current Statement Rip Current Statement      

Active alerts

Northern Queens
  Details for Northern Queens Areal Flood Advisory  +2 additional alerts
Southern Queens
  Details for Southern Queens Areal Flood Advisory  +2 additional alerts
Northern Nassau
  Details for Northern Nassau Areal Flood Advisory  +2 additional alerts
Southern Nassau
  Details for Southern Nassau Areal Flood Advisory  +2 additional alerts
Northwest Suffolk
  Details for Northwest Suffolk Rip Current Statement
Southwest Suffolk
  Details for Southwest Suffolk Rip Current Statement
Northeast Suffolk
  Details for Northeast Suffolk Rip Current Statement
Southeast Suffolk
  Details for Southeast Suffolk Rip Current Statement


WXM80 ListenWXM80 Stop

You find our weather info also at:

UK Metoffice

WeatherCloud

Weather Underground

Northeastern Weather Network

AWEKAS

Citizen Weather Observer Program (CWOP)

HAMweather, WeatherForYou, PWS Weather


Weather Underground History page Text

Daily Summary for September 13, 2017 Units:  Metric    English   Both
« Previous Day
Next Day »
Daily Weekly Monthly Yearly Custom
  High: Low: Average:
Temperature: 30.2 °C 15.6 °C 22 °C
Dew Point: 20.5 °C 14.3 °C 17.7 °C
Humidity: 96 % 46 % 79 %
Wind Speed: 7.1 km/h 0 km/h 1.1 km/h
Wind Gust: 14.8 km/h - -
Wind:- - SW
Pressure: 1011.7 hPa 1008.7 hPa -
Precipitation: 0 mm    
Historical Graphs
 
 
Tabular Data for September 13, 2017
Time Temperature Dew Point Pressure Wind Wind Speed Wind Gust Humidity Rainfall Rate (Hourly)
00:01 18.6 °C 16.2 °C 1010.7 hPa Calm     86 % 0 mm
00:06 18.5 °C 16.1 °C 1011.1 hPa Calm     86 % 0 mm
00:08 18.5 °C 15.9 °C 1011.1 hPa Calm     85 % 0 mm
00:13 18.4 °C 16.1 °C 1011.1 hPa Calm     86 % 0 mm
00:18 18.3 °C 15.9 °C 1011.1 hPa Calm   1.9 km/h 86 % 0 mm
00:23 18.3 °C 15.9 °C 1011.1 hPa Calm   1.9 km/h 86 % 0 mm
00:28 18.2 °C 15.8 °C 1011.1 hPa WSW 1.1 km/h 3.7 km/h 86 % 0 mm
00:33 18.1 °C 15.7 °C 1010.7 hPa WSW 0.6 km/h 1.9 km/h 86 % 0 mm
00:38 18 °C 15.6 °C 1010.7 hPa WSW 0.3 km/h 1.9 km/h 86 % 0 mm
00:43 17.9 °C 15.7 °C 1010.7 hPa WSW 0.3 km/h 1.9 km/h 87 % 0 mm
00:48 17.8 °C 15.8 °C 1010.7 hPa WSW 2.1 km/h 3.7 km/h 88 % 0 mm
00:53 17.8 °C 15.8 °C 1010.7 hPa WSW 0.5 km/h 1.9 km/h 88 % 0 mm
00:58 17.8 °C 15.9 °C 1010.7 hPa WSW 1.9 km/h 6.4 km/h 89 % 0 mm
01:03 17.7 °C 15.9 °C 1010.7 hPa Calm   1.9 km/h 89 % 0 mm
01:08 17.7 °C 15.9 °C 1010.7 hPa WSW 1.4 km/h 3.7 km/h 89 % 0 mm
01:13 17.7 °C 15.9 °C 1010.7 hPa WSW 2.3 km/h 5.6 km/h 89 % 0 mm
01:18 17.7 °C 15.9 °C 1010.7 hPa WSW 2.4 km/h 3.7 km/h 89 % 0 mm
01:23 17.7 °C 15.9 °C 1010.7 hPa WSW 2.6 km/h 4.8 km/h 89 % 0 mm
01:28 17.7 °C 15.8 °C 1010.7 hPa SW 1 km/h 3.7 km/h 89 % 0 mm
01:33 17.7 °C 15.8 °C 1010.7 hPa SW 1.9 km/h 5.6 km/h 89 % 0 mm
01:38 17.7 °C 15.8 °C 1010.7 hPa SW 1.9 km/h 5.6 km/h 89 % 0 mm
01:43 17.7 °C 15.8 °C 1010.7 hPa SW 2.7 km/h 3.7 km/h 89 % 0 mm
01:48 17.7 °C 15.8 °C 1010.7 hPa Calm   3.7 km/h 89 % 0 mm
01:53 17.7 °C 15.8 °C 1010.7 hPa SW 0.8 km/h 1.9 km/h 89 % 0 mm
01:58 17.7 °C 15.7 °C 1010.7 hPa Calm   1.9 km/h 88 % 0 mm
02:03 17.7 °C 15.7 °C 1010.7 hPa SW 0.5 km/h 1.9 km/h 88 % 0 mm
02:08 17.6 °C 15.6 °C 1010.7 hPa SW 0.2 km/h 1.9 km/h 88 % 0 mm
02:13 17.6 °C 15.6 °C 1010.7 hPa Calm   1.9 km/h 88 % 0 mm
02:18 17.6 °C 15.6 °C 1010.7 hPa SW 0.3 km/h 1.9 km/h 88 % 0 mm
02:23 17.6 °C 15.6 °C 1010.7 hPa SW 0.3 km/h 1.9 km/h 88 % 0 mm
02:28 17.5 °C 15.5 °C 1010.7 hPa Calm   1.9 km/h 88 % 0 mm
02:34 17.5 °C 15.5 °C 1010.7 hPa SW 0.2 km/h 3.7 km/h 88 % 0 mm
02:39 17.4 °C 15.4 °C 1010.7 hPa SW 0.3 km/h 1.9 km/h 88 % 0 mm
02:44 17.4 °C 15.4 °C 1010.7 hPa SW 0.5 km/h 3.7 km/h 88 % 0 mm
02:49 17.4 °C 15.4 °C 1010.7 hPa SW 1.8 km/h 5.6 km/h 88 % 0 mm
02:54 17.3 °C 15.3 °C 1011.1 hPa SW 1.4 km/h 5.6 km/h 88 % 0 mm
02:59 17.3 °C 15.5 °C 1010.7 hPa SW 1.1 km/h 3.7 km/h 89 % 0 mm
03:04 17.3 °C 15.5 °C 1010.7 hPa SW 1 km/h 3.7 km/h 89 % 0 mm
03:09 17.3 °C 15.4 °C 1010.7 hPa SW 1 km/h 1.9 km/h 89 % 0 mm
03:14 17.3 °C 15.4 °C 1010.7 hPa SSW 1.6 km/h 3.7 km/h 89 % 0 mm
03:19 17.3 °C 15.4 °C 1011.1 hPa SSW 1 km/h 3.7 km/h 89 % 0 mm
03:24 17.3 °C 15.4 °C 1011.1 hPa SSW 0.5 km/h 1.9 km/h 89 % 0 mm
03:29 17.3 °C 15.4 °C 1010.7 hPa SSW 0.8 km/h 1.9 km/h 89 % 0 mm
03:34 17.3 °C 15.3 °C 1010.7 hPa SSW 0.5 km/h 3.2 km/h 88 % 0 mm
03:40 17.3 °C 15.3 °C 1010.7 hPa SSW 0.6 km/h 3.7 km/h 88 % 0 mm
03:45 17.2 °C 15.2 °C 1011.1 hPa SSW 0.8 km/h 3.7 km/h 88 % 0 mm
03:50 17.2 °C 15.2 °C 1010.7 hPa Calm   1.9 km/h 88 % 0 mm
03:55 17.2 °C 15.2 °C 1010.7 hPa Calm   1.9 km/h 88 % 0 mm
04:00 17.2 °C 15.2 °C 1010.7 hPa SW 0.2 km/h 1.9 km/h 88 % 0 mm
04:05 17.2 °C 15.2 °C 1010.7 hPa SW 1.9 km/h 3.7 km/h 88 % 0 mm
04:10 17.1 °C 15.1 °C 1010.7 hPa SW 1.4 km/h 3.7 km/h 88 % 0 mm
04:15 17.1 °C 15.1 °C 1010.7 hPa SW 1.6 km/h 3.7 km/h 88 % 0 mm
04:20 17 °C 15 °C 1010.7 hPa SW 2.6 km/h 3.7 km/h 88 % 0 mm
04:25 17 °C 15.2 °C 1010.7 hPa SW 1.3 km/h 3.7 km/h 89 % 0 mm
04:30 16.9 °C 15.1 °C 1010.7 hPa SW 1.4 km/h 3.7 km/h 89 % 0 mm
04:35 16.9 °C 15.1 °C 1010.7 hPa SW 0.5 km/h 1.9 km/h 89 % 0 mm
04:40 16.8 °C 14.9 °C 1010.7 hPa SW 0.2 km/h 1.6 km/h 89 % 0 mm
04:45 16.7 °C 14.9 °C 1010.7 hPa Calm     89 % 0 mm
04:51 16.7 °C 14.9 °C 1010.7 hPa Calm   3.2 km/h 89 % 0 mm
04:56 16.7 °C 14.8 °C 1010.7 hPa Calm   1.9 km/h 89 % 0 mm
05:01 16.6 °C 14.8 °C 1010.7 hPa Calm   3.7 km/h 89 % 0 mm
05:06 16.5 °C 14.7 °C 1010.7 hPa Calm     89 % 0 mm
05:11 16.4 °C 14.6 °C 1010.7 hPa SW 0.3 km/h 1.9 km/h 89 % 0 mm
05:16 16.4 °C 14.6 °C 1010.7 hPa SW 0.6 km/h 3.7 km/h 89 % 0 mm
05:21 16.3 °C 14.7 °C 1010.7 hPa Calm   1.9 km/h 90 % 0 mm
05:26 16.3 °C 14.7 °C 1010.7 hPa Calm     90 % 0 mm
05:31 16.3 °C 14.6 °C 1010.7 hPa Calm     90 % 0 mm
05:36 16.2 °C 14.6 °C 1011.1 hPa Calm     90 % 0 mm
05:41 16.2 °C 14.5 °C 1011.1 hPa Calm     90 % 0 mm
05:46 16.1 °C 14.4 °C 1011.1 hPa Calm     90 % 0 mm
05:51 16.1 °C 14.4 °C 1011.1 hPa Calm   1.9 km/h 90 % 0 mm
05:56 16 °C 14.3 °C 1011.1 hPa SW 0.6 km/h 1.9 km/h 90 % 0 mm
06:02 15.9 °C 14.5 °C 1011.1 hPa Calm     91 % 0 mm
06:07 15.9 °C 14.4 °C 1011.4 hPa Calm     91 % 0 mm
06:12 15.9 °C 14.4 °C 1011.4 hPa Calm     91 % 0 mm
06:17 15.8 °C 14.4 °C 1011.4 hPa Calm   1.9 km/h 91 % 0 mm
06:22 15.8 °C 14.3 °C 1011.4 hPa SW 2.1 km/h 3.7 km/h 91 % 0 mm
06:27 15.8 °C 14.5 °C 1011.1 hPa Calm     92 % 0 mm
06:32 15.7 °C 14.4 °C 1011.4 hPa SW 0.2 km/h 3.2 km/h 92 % 0 mm
06:37 15.7 °C 14.6 °C 1011.4 hPa Calm     93 % 0 mm
06:42 15.7 °C 14.6 °C 1011.4 hPa SW 0.5 km/h 3.7 km/h 93 % 0 mm
06:47 15.7 °C 14.6 °C 1011.4 hPa SW 0.3 km/h 1.9 km/h 93 % 0 mm
06:52 15.7 °C 14.6 °C 1011.4 hPa Calm   1.9 km/h 93 % 0 mm
06:57 15.7 °C 14.6 °C 1011.4 hPa Calm     93 % 0 mm
07:03 15.7 °C 14.6 °C 1011.4 hPa Calm     93 % 0 mm
07:08 15.7 °C 14.6 °C 1011.4 hPa Calm     93 % 0 mm
07:13 15.6 °C 14.5 °C 1011.4 hPa Calm     93 % 0 mm
07:18 15.6 °C 14.5 °C 1011.7 hPa Calm     93 % 0 mm
07:23 15.6 °C 14.5 °C 1011.4 hPa Calm     93 % 0 mm
07:26 15.6 °C 14.5 °C 1011.4 hPa Calm     93 % 0 mm
07:31 15.6 °C 14.5 °C 1011.4 hPa Calm     93 % 0 mm
07:36 15.6 °C 14.5 °C 1011.4 hPa Calm     93 % 0 mm
07:41 15.7 °C 14.7 °C 1011.4 hPa SW 0.2 km/h 1.9 km/h 94 % 0 mm
07:46 15.7 °C 14.8 °C 1011.4 hPa SW 0.2 km/h 1.6 km/h 94 % 0 mm
07:51 15.8 °C 14.9 °C 1011.4 hPa Calm     94 % 0 mm
07:56 15.9 °C 15 °C 1011.4 hPa Calm     94 % 0 mm
08:01 16 °C 15.2 °C 1011.4 hPa Calm     95 % 0 mm
08:07 16.2 °C 15.4 °C 1011.4 hPa Calm     95 % 0 mm
08:12 16.4 °C 15.6 °C 1011.1 hPa Calm     95 % 0 mm
08:17 16.6 °C 15.9 °C 1011.1 hPa Calm     96 % 0 mm
08:22 16.7 °C 16.1 °C 1011.1 hPa WNW 2.4 km/h 5.6 km/h 96 % 0 mm
08:27 16.9 °C 16.2 °C 1011.4 hPa West 0.5 km/h 4.8 km/h 96 % 0 mm
08:32 17.1 °C 16.4 °C 1011.4 hPa SW 1.4 km/h 3.7 km/h 96 % 0 mm
08:37 17.2 °C 16.6 °C 1011.4 hPa West 4.5 km/h 5.6 km/h 96 % 0 mm
08:42 17.4 °C 16.6 °C 1011.4 hPa SW 1.4 km/h 3.2 km/h 95 % 0 mm
08:47 17.6 °C 16.8 °C 1011.4 hPa WSW 4.2 km/h 5.6 km/h 95 % 0 mm
08:52 17.8 °C 17 °C 1011.4 hPa SW 2.4 km/h 5.6 km/h 95 % 0 mm
08:57 18.1 °C 17.1 °C 1011.4 hPa WSW 1.4 km/h 3.7 km/h 94 % 0 mm
09:02 18.3 °C 17.3 °C 1011.4 hPa WSW 1.4 km/h 5.6 km/h 94 % 0 mm
09:08 18.5 °C 17.3 °C 1011.7 hPa SW 1.9 km/h 3.7 km/h 93 % 0 mm
09:13 18.7 °C 17.6 °C 1011.7 hPa Calm     93 % 0 mm
09:18 18.8 °C 17.5 °C 1011.7 hPa NW 1.6 km/h 5.6 km/h 92 % 0 mm
09:23 19 °C 17.5 °C 1011.7 hPa West 4.8 km/h 5.6 km/h 91 % 0 mm
09:28 19.2 °C 17.5 °C 1011.7 hPa WSW 1.8 km/h 3.7 km/h 90 % 0 mm
09:33 19.3 °C 17.6 °C 1011.7 hPa Calm     90 % 0 mm
09:38 19.4 °C 17.8 °C 1011.7 hPa West 1.4 km/h 3.7 km/h 90 % 0 mm
09:43 19.6 °C 17.9 °C 1011.7 hPa WNW 3.2 km/h 5.6 km/h 90 % 0 mm
09:48 19.8 °C 18.2 °C 1011.4 hPa NNW 1.1 km/h 3.2 km/h 90 % 0 mm
09:53 20.1 °C 18.2 °C 1011.4 hPa West 0.6 km/h 5.6 km/h 89 % 0 mm
09:58 20.4 °C 18.5 °C 1011.4 hPa West 0.3 km/h 1.9 km/h 89 % 0 mm
10:03 20.7 °C 18.6 °C 1011.4 hPa North 5.1 km/h 7.4 km/h 88 % 0 mm
10:08 20.8 °C 18.6 °C 1011.4 hPa North 2.6 km/h 5.6 km/h 87 % 0 mm
10:13 20.9 °C 18.5 °C 1011.4 hPa North 1.9 km/h 3.7 km/h 86 % 0 mm
10:19 21.1 °C 18.6 °C 1011.4 hPa North 0.8 km/h 3.2 km/h 86 % 0 mm
10:24 21.2 °C 18.6 °C 1011.4 hPa North 3.1 km/h 5.6 km/h 85 % 0 mm
10:29 21.2 °C 18.6 °C 1011.4 hPa NNE 2.9 km/h 5.6 km/h 85 % 0 mm
10:34 21.3 °C 18.7 °C 1011.4 hPa WNW 0.5 km/h 5.6 km/h 85 % 0 mm
10:39 21.4 °C 18.6 °C 1011.4 hPa NNW 0.3 km/h 3.7 km/h 84 % 0 mm
10:44 21.6 °C 18.9 °C 1011.4 hPa WNW 0.5 km/h 3.7 km/h 85 % 0 mm
10:49 21.7 °C 18.8 °C 1011.4 hPa WNW 2.9 km/h 5.6 km/h 84 % 0 mm
10:55 21.8 °C 18.8 °C 1011.1 hPa WNW 2.7 km/h 5.6 km/h 83 % 0 mm
11:00 21.9 °C 18.9 °C 1011.1 hPa WNW 0.2 km/h 3.7 km/h 83 % 0 mm
11:05 22.1 °C 18.9 °C 1011.1 hPa North 2.9 km/h 5.6 km/h 82 % 0 mm
11:10 22.3 °C 18.9 °C 1011.1 hPa WNW 1.6 km/h 3.7 km/h 81 % 0 mm
11:15 22.7 °C 19.3 °C 1011.1 hPa NW 1.6 km/h 5.6 km/h 81 % 0 mm
11:20 23.2 °C 19.6 °C 1010.7 hPa West 3.9 km/h 5.6 km/h 80 % 0 mm
11:25 23.7 °C 19.7 °C 1011.1 hPa North 0.6 km/h 3.7 km/h 78 % 0 mm
11:30 24.3 °C 20.2 °C 1011.1 hPa North 1.3 km/h 3.7 km/h 78 % 0 mm
11:35 24.9 °C 19.5 °C 1011.1 hPa WSW 2.3 km/h 5.6 km/h 72 % 0 mm
11:40 25.2 °C 18.9 °C 1011.1 hPa NNW 2.1 km/h 7.4 km/h 68 % 0 mm
11:45 25.7 °C 20 °C 1011.1 hPa SW 3.5 km/h 7.4 km/h 71 % 0 mm
11:51 26.2 °C 20.3 °C 1010.7 hPa West 0.6 km/h 5.6 km/h 70 % 0 mm
11:56 26.7 °C 19.6 °C 1010.7 hPa WSW 3.2 km/h 6.4 km/h 65 % 0 mm
12:01 27.1 °C 19.2 °C 1010.7 hPa West 2.3 km/h 3.7 km/h 62 % 0 mm
12:06 27.5 °C 19.6 °C 1010.7 hPa NW 2.9 km/h 6.4 km/h 62 % 0 mm
12:11 27.8 °C 18.8 °C 1010.7 hPa WSW 4.7 km/h 5.6 km/h 58 % 0 mm
12:16 28.2 °C 19.9 °C 1010.7 hPa WSW 1.8 km/h 3.7 km/h 61 % 0 mm
12:21 28.5 °C 20.5 °C 1010.7 hPa West 0.2 km/h 1.9 km/h 62 % 0 mm
12:26 28.8 °C 19.2 °C 1010.7 hPa WSW 3.9 km/h 7.4 km/h 56 % 0 mm
12:31 29.1 °C 20.5 °C 1010.4 hPa WSW 1 km/h 1.9 km/h 60 % 0 mm
12:36 29.3 °C 19 °C 1010.4 hPa West 0.2 km/h 5.6 km/h 54 % 0 mm
12:41 29.4 °C 18.8 °C 1010.4 hPa SW 5 km/h 9.3 km/h 53 % 0 mm
12:46 29.5 °C 18.3 °C 1010.4 hPa West 3.1 km/h 6.4 km/h 51 % 0 mm
12:51 29.6 °C 19.3 °C 1010.4 hPa NW 1.8 km/h 5.6 km/h 54 % 0 mm
12:57 29.7 °C 18.5 °C 1010.4 hPa SW 1.4 km/h 5.6 km/h 51 % 0 mm
13:02 29.8 °C 19.5 °C 1010.4 hPa SW 0.2 km/h 1.9 km/h 54 % 0 mm
13:07 29.9 °C 18.7 °C 1010.4 hPa WSW 1.3 km/h 3.7 km/h 51 % 0 mm
13:12 30 °C 19.4 °C 1010.4 hPa WNW 1.9 km/h 5.6 km/h 53 % 0 mm
13:17 30.1 °C 20.1 °C 1010.4 hPa North 2.4 km/h 5.6 km/h 55 % 0 mm
13:22 30.2 °C 19.8 °C 1010 hPa North 4.3 km/h 7.4 km/h 54 % 0 mm
13:27 30.1 °C 20.4 °C 1010 hPa North 5.3 km/h 9.3 km/h 56 % 0 mm
13:32 30 °C 19.7 °C 1010 hPa North 7.1 km/h 9.3 km/h 54 % 0 mm
13:37 29.8 °C 19.2 °C 1010 hPa NNW 2.1 km/h 4.8 km/h 53 % 0 mm
13:42 29.8 °C 19.5 °C 1010 hPa NNW 5.6 km/h 9.3 km/h 54 % 0 mm
13:47 29.7 °C 18.8 °C 1010 hPa North 2.4 km/h 6.4 km/h 52 % 0 mm
13:53 29.6 °C 19 °C 1009.7 hPa North 1.8 km/h 5.6 km/h 53 % 0 mm
13:58 29.6 °C 18.9 °C 1009.7 hPa WNW 2.9 km/h 6.4 km/h 53 % 0 mm
14:03 29.6 °C 19.3 °C 1009.7 hPa NNE 4.3 km/h 6.4 km/h 54 % 0 mm
14:08 29.6 °C 17.7 °C 1009.4 hPa WNW 3.7 km/h 5.6 km/h 49 % 0 mm
14:13 29.6 °C 18.1 °C 1009.4 hPa NNW 1.8 km/h 5.6 km/h 50 % 0 mm
14:18 29.6 °C 18.1 °C 1009.4 hPa NW 5.1 km/h 7.4 km/h 50 % 0 mm
14:23 29.6 °C 18.1 °C 1009.4 hPa NNW 1.6 km/h 5.6 km/h 50 % 0 mm
14:28 29.6 °C 17.8 °C 1009.4 hPa NNE 3.5 km/h 5.6 km/h 49 % 0 mm
14:33 29.6 °C 18.1 °C 1009.4 hPa NNE 3.7 km/h 7.4 km/h 50 % 0 mm
14:34 29.6 °C 18.1 °C 1009.4 hPa North 3.2 km/h 7.4 km/h 50 % 0 mm
14:39 29.7 °C 18.1 °C 1009.4 hPa NNE 2.6 km/h 5.6 km/h 50 % 0 mm
14:44 29.7 °C 17.5 °C 1009.4 hPa NNE 1.1 km/h 5.6 km/h 48 % 0 mm
14:49 29.6 °C 17.4 °C 1009.4 hPa North 3.2 km/h 9.3 km/h 48 % 0 mm
14:54 29.6 °C 16.7 °C 1009.4 hPa WNW 1.4 km/h 4.8 km/h 46 % 0 mm
14:59 29.4 °C 16.6 °C 1009.4 hPa Calm   3.7 km/h 46 % 0 mm
15:04 29.4 °C 17.2 °C 1009 hPa WNW 0.3 km/h 1.9 km/h 48 % 0 mm
15:09 29.1 °C 16.9 °C 1009 hPa Calm     48 % 0 mm
15:14 29 °C 16.9 °C 1009.4 hPa Calm   1.9 km/h 48 % 0 mm
15:19 29 °C 16.9 °C 1009 hPa Calm   1.9 km/h 48 % 0 mm
15:24 28.9 °C 17.2 °C 1009 hPa Calm   1.9 km/h 49 % 0 mm
15:30 28.9 °C 17.2 °C 1009 hPa West 2.1 km/h 5.6 km/h 49 % 0 mm
15:35 28.9 °C 17.5 °C 1009 hPa WSW 2.9 km/h 5.6 km/h 50 % 0 mm
15:40 28.9 °C 18.1 °C 1008.7 hPa SE 1.4 km/h 5.6 km/h 52 % 0 mm
15:45 28.8 °C 18.6 °C 1008.7 hPa WSW 5.5 km/h 7.4 km/h 54 % 0 mm
15:50 28.8 °C 18.6 °C 1009 hPa SW 1.1 km/h 3.7 km/h 54 % 0 mm
15:55 28.7 °C 18.7 °C 1009 hPa SW 2.1 km/h 5.6 km/h 55 % 0 mm
16:00 28.6 °C 19 °C 1009 hPa SE 1.1 km/h 3.7 km/h 56 % 0 mm
16:05 28.6 °C 18.9 °C 1008.7 hPa WSW 5.3 km/h 9.3 km/h 56 % 0 mm
16:10 28.5 °C 18.6 °C 1009 hPa SSW 4.5 km/h 14.8 km/h 55 % 0 mm
16:15 28.5 °C 18.9 °C 1009 hPa SW 1.8 km/h 5.6 km/h 56 % 0 mm
16:20 28.6 °C 18.9 °C 1008.7 hPa SW 0.5 km/h 1.9 km/h 56 % 0 mm
16:25 28.5 °C 19.2 °C 1008.7 hPa SW 1 km/h 3.7 km/h 57 % 0 mm
16:30 28.4 °C 19.1 °C 1008.7 hPa WSW 1.8 km/h 1.9 km/h 57 % 0 mm
16:35 28.4 °C 18.8 °C 1008.7 hPa SW 1.4 km/h 3.7 km/h 56 % 0 mm
16:41 28.3 °C 19.2 °C 1008.7 hPa SW 1.6 km/h 8 km/h 58 % 0 mm
16:46 28.2 °C 19.1 °C 1008.7 hPa Calm   4.8 km/h 58 % 0 mm
16:51 28.1 °C 19 °C 1008.7 hPa Calm   3.2 km/h 58 % 0 mm
16:56 27.9 °C 19.1 °C 1008.7 hPa South 0.5 km/h 3.7 km/h 59 % 0 mm
17:01 27.8 °C 19.1 °C 1009 hPa Calm   5.6 km/h 59 % 0 mm
17:06 27.6 °C 19.1 °C 1009 hPa SSW 0.3 km/h 5.6 km/h 60 % 0 mm
17:11 27.3 °C 18.9 °C 1009 hPa South 1.3 km/h 5.6 km/h 60 % 0 mm
17:16 27.1 °C 18.9 °C 1009 hPa SE 0.6 km/h 1.9 km/h 61 % 0 mm
17:21 27 °C 19.1 °C 1009 hPa SSW 0.5 km/h 1.9 km/h 62 % 0 mm
17:26 26.8 °C 18.6 °C 1009 hPa SSW 0.2 km/h 1.9 km/h 61 % 0 mm
17:31 26.6 °C 18.7 °C 1009 hPa West 1.6 km/h 9.7 km/h 62 % 0 mm
17:36 26.4 °C 18.3 °C 1009.4 hPa South 1.9 km/h 7.4 km/h 61 % 0 mm
17:41 26.3 °C 18.2 °C 1009.4 hPa SSW 5 km/h 14.8 km/h 61 % 0 mm
17:46 26.1 °C 18.2 °C 1009.4 hPa ESE 0.3 km/h 3.7 km/h 62 % 0 mm
17:51 25.8 °C 18.3 °C 1009 hPa SW 0.6 km/h 7.4 km/h 63 % 0 mm
17:56 25.7 °C 18.3 °C 1009 hPa SW 3.7 km/h 7.4 km/h 64 % 0 mm
18:01 25.4 °C 18.4 °C 1009 hPa Calm     65 % 0 mm
18:07 25.3 °C 18.5 °C 1009 hPa Calm     66 % 0 mm
18:12 25.1 °C 18.8 °C 1009.4 hPa SE 0.2 km/h 1.9 km/h 68 % 0 mm
18:17 24.9 °C 18.9 °C 1009 hPa WNW 1.3 km/h 5.6 km/h 69 % 0 mm
18:22 24.8 °C 19 °C 1009 hPa WSW 2.1 km/h 7.4 km/h 70 % 0 mm
18:27 24.7 °C 19.1 °C 1009 hPa WSW 2.6 km/h 5.6 km/h 71 % 0 mm
18:32 24.5 °C 19.1 °C 1009.4 hPa WSW 0.8 km/h 3.7 km/h 72 % 0 mm
18:37 24.4 °C 19.2 °C 1009.4 hPa SW 3.4 km/h 8 km/h 73 % 0 mm
18:42 24.2 °C 19.3 °C 1009.4 hPa SW 3.2 km/h 5.6 km/h 74 % 0 mm
18:47 24.1 °C 19.4 °C 1009.4 hPa West 5.8 km/h 9.7 km/h 75 % 0 mm
18:52 24 °C 19.5 °C 1009.4 hPa SSW 3.2 km/h 6.4 km/h 76 % 0 mm
18:57 23.9 °C 19.4 °C 1009.4 hPa SW 3.5 km/h 6.4 km/h 76 % 0 mm
19:02 23.8 °C 19.5 °C 1009.4 hPa SW 3.7 km/h 6.4 km/h 77 % 0 mm
19:08 23.7 °C 19.7 °C 1009.4 hPa West 2.3 km/h 7.4 km/h 78 % 0 mm
19:13 23.6 °C 19.8 °C 1009.4 hPa SW 5.6 km/h 9.3 km/h 79 % 0 mm
19:17 23.6 °C 19.7 °C 1009.4 hPa West 2.7 km/h 5.6 km/h 79 % 0 mm
19:22 23.5 °C 19.8 °C 1009.4 hPa WSW 1.6 km/h 5.6 km/h 80 % 0 mm
19:27 23.4 °C 19.7 °C 1009.4 hPa WSW 0.3 km/h 1.9 km/h 80 % 0 mm
19:32 23.3 °C 19.7 °C 1009.4 hPa Calm     80 % 0 mm
19:37 23.3 °C 19.6 °C 1009.4 hPa WSW 0.5 km/h 3.7 km/h 80 % 0 mm
19:42 23.2 °C 19.6 °C 1009.4 hPa Calm     80 % 0 mm
19:47 23.2 °C 19.7 °C 1009.4 hPa Calm     81 % 0 mm
19:52 23.1 °C 19.7 °C 1009.7 hPa ESE 1.1 km/h 4.8 km/h 81 % 0 mm
19:57 23.1 °C 19.8 °C 1009.4 hPa Calm     82 % 0 mm
20:02 23 °C 19.8 °C 1009.7 hPa Calm   1.9 km/h 82 % 0 mm
20:07 22.9 °C 19.7 °C 1009.7 hPa Calm   1.9 km/h 82 % 0 mm
20:12 22.9 °C 19.8 °C 1009.7 hPa SW 1.4 km/h 5.6 km/h 83 % 0 mm
20:17 22.9 °C 19.8 °C 1009.7 hPa Calm   3.7 km/h 83 % 0 mm
20:23 22.8 °C 19.8 °C 1009.7 hPa SSW 0.5 km/h 1.9 km/h 83 % 0 mm
20:28 22.8 °C 19.8 °C 1009.7 hPa Calm   1.9 km/h 83 % 0 mm
20:33 22.8 °C 19.9 °C 1009.7 hPa Calm   1.9 km/h 84 % 0 mm
20:38 22.8 °C 19.9 °C 1009.7 hPa Calm     84 % 0 mm
20:43 22.8 °C 19.7 °C 1009.7 hPa Calm     83 % 0 mm
20:48 22.7 °C 19.9 °C 1009.7 hPa Calm   1.9 km/h 84 % 0 mm
20:53 22.7 °C 19.9 °C 1009.7 hPa Calm     84 % 0 mm
20:58 22.7 °C 19.9 °C 1009.7 hPa Calm     84 % 0 mm
21:03 22.7 °C 19.8 °C 1009.7 hPa Calm   1.9 km/h 84 % 0 mm
21:08 22.7 °C 19.8 °C 1009.7 hPa Calm     84 % 0 mm
21:13 22.7 °C 19.8 °C 1009.7 hPa Calm     84 % 0 mm
21:19 22.7 °C 20 °C 1009.7 hPa Calm     85 % 0 mm
21:24 22.7 °C 20 °C 1009.7 hPa Calm     85 % 0 mm
21:29 22.6 °C 19.9 °C 1009.7 hPa Calm     85 % 0 mm
21:34 22.6 °C 19.9 °C 1009.7 hPa Calm     85 % 0 mm
21:39 22.6 °C 20.2 °C 1009.7 hPa Calm     86 % 0 mm
21:44 22.6 °C 20.2 °C 1009.4 hPa Calm     86 % 0 mm
21:49 22.6 °C 20.1 °C 1009.4 hPa Calm     86 % 0 mm
21:54 22.6 °C 20.1 °C 1009.4 hPa Calm     86 % 0 mm
21:59 22.6 °C 20.1 °C 1009.4 hPa Calm     86 % 0 mm
22:04 22.6 °C 20.1 °C 1009.7 hPa Calm     86 % 0 mm
22:09 22.6 °C 20.1 °C 1009.7 hPa Calm     86 % 0 mm
22:14 22.6 °C 20.1 °C 1009.7 hPa Calm     86 % 0 mm
22:19 22.6 °C 20.1 °C 1009.7 hPa Calm     86 % 0 mm
22:25 22.6 °C 20.3 °C 1009.7 hPa Calm     87 % 0 mm
22:30 22.6 °C 20.3 °C 1009.7 hPa Calm     87 % 0 mm
22:35 22.6 °C 20.3 °C 1009.7 hPa Calm   3.7 km/h 87 % 0 mm
22:40 22.6 °C 20.3 °C 1009.7 hPa Calm     87 % 0 mm
22:45 22.6 °C 20.3 °C 1009.7 hPa Calm     87 % 0 mm
22:50 22.6 °C 20.4 °C 1009.7 hPa SSW 0.8 km/h 3.7 km/h 88 % 0 mm
22:55 22.6 °C 20.4 °C 1009.7 hPa SSW 0.3 km/h 1.9 km/h 88 % 0 mm
23:00 22.5 °C 20.4 °C 1009.7 hPa Calm     88 % 0 mm
23:05 22.5 °C 20.4 °C 1009.7 hPa SSE 0.3 km/h   88 % 0 mm
23:10 22.5 °C 20.4 °C 1009.7 hPa SSE 0.2 km/h 1.9 km/h 88 % 0 mm
23:19 22.4 °C 20.3 °C 1009.7 hPa South 0.3 km/h 3.7 km/h 88 % 0 mm
23:23 22.4 °C 20.3 °C 1009.7 hPa Calm     88 % 0 mm
23:24 22.4 °C 20.3 °C 1009.7 hPa SSE 0.5 km/h 3.7 km/h 88 % 0 mm
23:26 22.4 °C 20.3 °C 1009.7 hPa Calm   3.7 km/h 88 % 0 mm
23:29 22.4 °C 20.3 °C 1009.7 hPa SSE 0.2 km/h   88 % 0 mm
23:32 22.3 °C 20.2 °C 1009.7 hPa Calm   1.9 km/h 88 % 0 mm
23:39 22.3 °C 20.2 °C 1009.7 hPa Calm     88 % 0 mm
23:40 22.3 °C 20.2 °C 1009.7 hPa Calm   1.9 km/h 88 % 0 mm
23:45 22.3 °C 20.2 °C 1009.4 hPa Calm     88 % 0 mm
23:50 22.3 °C 20.2 °C 1009.7 hPa Calm     88 % 0 mm
23:56 22.3 °C 20.2 °C 1009.7 hPa Calm   1.6 km/h 88 % 0 mm
Crab Meadow Weather
Compliments of Weather Underground - 3 mb

Script developed by  Jim McMurry - jmcmurry@mwt.net Adapted for the template by  Wim van der Kuil - Leuven-Template.eu

Weather Terms: Severe Local Storms - These are short-fused, small scale hazardous weather or hydrologic events produced by thunderstorms, including large hail, damaging winds, tornadoes, and flash floods.